sensor_id;sensor_type;location;lat;lon;timestamp;P1;durP1;ratioP1;P2;durP2;ratioP2
37449;SDS011;23309;52.582;13.406;2022-12-07T00:01:39;6.57;;;5.70;;
37449;SDS011;23309;52.582;13.406;2022-12-07T00:04:10;7.10;;;5.50;;
37449;SDS011;23309;52.582;13.406;2022-12-07T00:06:39;6.00;;;5.30;;
37449;SDS011;23309;52.582;13.406;2022-12-07T00:09:09;7.57;;;6.00;;
37449;SDS011;23309;52.582;13.406;2022-12-07T00:11:37;6.87;;;5.90;;
37449;SDS011;23309;52.582;13.406;2022-12-07T00:14:04;6.50;;;5.60;;
37449;SDS011;23309;52.582;13.406;2022-12-07T00:16:33;9.50;;;5.30;;
37449;SDS011;23309;52.582;13.406;2022-12-07T00:19:00;6.53;;;5.83;;
37449;SDS011;23309;52.582;13.406;2022-12-07T00:21:29;8.90;;;5.57;;
37449;SDS011;23309;52.582;13.406;2022-12-07T00:23:58;6.80;;;5.80;;
37449;SDS011;23309;52.582;13.406;2022-12-07T00:26:26;6.17;;;5.53;;
37449;SDS011;23309;52.582;13.406;2022-12-07T00:28:55;7.13;;;6.07;;
37449;SDS011;23309;52.582;13.406;2022-12-07T00:31:23;7.73;;;5.80;;
37449;SDS011;23309;52.582;13.406;2022-12-07T00:33:51;9.20;;;5.83;;
37449;SDS011;23309;52.582;13.406;2022-12-07T00:36:19;8.53;;;5.80;;
37449;SDS011;23309;52.582;13.406;2022-12-07T00:38:50;9.43;;;6.47;;
37449;SDS011;23309;52.582;13.406;2022-12-07T00:41:17;7.33;;;5.93;;
37449;SDS011;23309;52.582;13.406;2022-12-07T00:43:45;6.83;;;5.70;;
37449;SDS011;23309;52.582;13.406;2022-12-07T00:46:13;6.80;;;5.77;;
37449;SDS011;23309;52.582;13.406;2022-12-07T00:48:41;6.60;;;5.77;;
37449;SDS011;23309;52.582;13.406;2022-12-07T00:51:09;7.23;;;5.83;;
37449;SDS011;23309;52.582;13.406;2022-12-07T00:53:37;6.97;;;6.03;;
37449;SDS011;23309;52.582;13.406;2022-12-07T00:56:07;5.93;;;5.30;;
37449;SDS011;23309;52.582;13.406;2022-12-07T00:58:35;5.63;;;4.80;;
37449;SDS011;23309;52.582;13.406;2022-12-07T01:01:01;6.30;;;5.43;;
37449;SDS011;23309;52.582;13.406;2022-12-07T01:03:29;7.17;;;6.03;;
37449;SDS011;23309;52.582;13.406;2022-12-07T01:05:56;7.70;;;5.43;;
37449;SDS011;23309;52.582;13.406;2022-12-07T01:08:23;7.23;;;5.60;;
37449;SDS011;23309;52.582;13.406;2022-12-07T01:10:57;7.30;;;5.30;;
37449;SDS011;23309;52.582;13.406;2022-12-07T01:13:27;6.63;;;5.57;;
37449;SDS011;23309;52.582;13.406;2022-12-07T01:15:56;7.90;;;5.67;;
37449;SDS011;23309;52.582;13.406;2022-12-07T01:18:24;6.97;;;5.90;;
37449;SDS011;23309;52.582;13.406;2022-12-07T01:20:56;7.53;;;5.93;;
37449;SDS011;23309;52.582;13.406;2022-12-07T01:23:24;6.73;;;5.83;;
37449;SDS011;23309;52.582;13.406;2022-12-07T01:25:53;7.50;;;6.20;;
37449;SDS011;23309;52.582;13.406;2022-12-07T01:28:20;9.57;;;6.30;;
37449;SDS011;23309;52.582;13.406;2022-12-07T01:30:56;8.77;;;6.00;;
37449;SDS011;23309;52.582;13.406;2022-12-07T01:33:23;6.20;;;5.50;;
37449;SDS011;23309;52.582;13.406;2022-12-07T01:35:51;6.53;;;5.80;;
37449;SDS011;23309;52.582;13.406;2022-12-07T01:38:17;7.90;;;6.20;;
37449;SDS011;23309;52.582;13.406;2022-12-07T01:40:43;7.33;;;6.30;;
37449;SDS011;23309;52.582;13.406;2022-12-07T01:43:13;8.87;;;6.43;;
37449;SDS011;23309;52.582;13.406;2022-12-07T01:45:42;7.50;;;5.67;;
37449;SDS011;23309;52.582;13.406;2022-12-07T01:48:11;5.60;;;4.97;;
37449;SDS011;23309;52.582;13.406;2022-12-07T01:50:41;5.13;;;4.63;;
37449;SDS011;23309;52.582;13.406;2022-12-07T01:53:10;5.50;;;5.00;;
37449;SDS011;23309;52.582;13.406;2022-12-07T01:55:38;5.20;;;4.37;;
37449;SDS011;23309;52.582;13.406;2022-12-07T01:58:09;5.10;;;4.50;;
37449;SDS011;23309;52.582;13.406;2022-12-07T02:00:36;5.00;;;4.50;;
37449;SDS011;23309;52.582;13.406;2022-12-07T02:03:04;6.77;;;4.63;;
37449;SDS011;23309;52.582;13.406;2022-12-07T02:05:37;6.17;;;4.97;;
37449;SDS011;23309;52.582;13.406;2022-12-07T02:08:06;5.00;;;4.50;;
37449;SDS011;23309;52.582;13.406;2022-12-07T02:10:34;5.53;;;4.80;;
37449;SDS011;23309;52.582;13.406;2022-12-07T02:13:02;5.57;;;4.50;;
37449;SDS011;23309;52.582;13.406;2022-12-07T02:15:34;4.80;;;4.40;;
37449;SDS011;23309;52.582;13.406;2022-12-07T02:18:20;5.03;;;4.50;;
37449;SDS011;23309;52.582;13.406;2022-12-07T02:21:00;5.73;;;4.53;;
37449;SDS011;23309;52.582;13.406;2022-12-07T02:23:47;5.07;;;4.57;;
37449;SDS011;23309;52.582;13.406;2022-12-07T02:30:01;4.37;;;3.97;;
37449;SDS011;23309;52.582;13.406;2022-12-07T02:32:31;4.07;;;3.67;;
37449;SDS011;23309;52.582;13.406;2022-12-07T02:35:08;4.23;;;3.67;;
37449;SDS011;23309;52.582;13.406;2022-12-07T02:37:41;4.20;;;3.73;;
37449;SDS011;23309;52.582;13.406;2022-12-07T02:40:14;6.43;;;3.80;;
37449;SDS011;23309;52.582;13.406;2022-12-07T02:42:49;4.00;;;3.60;;
37449;SDS011;23309;52.582;13.406;2022-12-07T02:45:24;4.07;;;3.67;;
37449;SDS011;23309;52.582;13.406;2022-12-07T02:47:55;3.57;;;3.27;;
37449;SDS011;23309;52.582;13.406;2022-12-07T02:50:24;4.33;;;3.77;;
37449;SDS011;23309;52.582;13.406;2022-12-07T02:52:51;5.13;;;3.77;;
37449;SDS011;23309;52.582;13.406;2022-12-07T02:55:17;4.60;;;4.20;;
37449;SDS011;23309;52.582;13.406;2022-12-07T02:57:54;5.40;;;4.70;;
37449;SDS011;23309;52.582;13.406;2022-12-07T03:00:43;6.20;;;4.73;;
37449;SDS011;23309;52.582;13.406;2022-12-07T03:03:16;5.77;;;4.73;;
37449;SDS011;23309;52.582;13.406;2022-12-07T03:05:50;4.80;;;4.30;;
37449;SDS011;23309;52.582;13.406;2022-12-07T03:08:48;6.73;;;4.60;;
37449;SDS011;23309;52.582;13.406;2022-12-07T03:11:22;5.67;;;4.87;;
37449;SDS011;23309;52.582;13.406;2022-12-07T03:13:55;6.80;;;5.20;;
37449;SDS011;23309;52.582;13.406;2022-12-07T03:16:31;5.67;;;4.90;;
37449;SDS011;23309;52.582;13.406;2022-12-07T03:19:05;6.17;;;4.80;;
37449;SDS011;23309;52.582;13.406;2022-12-07T03:21:37;7.17;;;5.20;;
37449;SDS011;23309;52.582;13.406;2022-12-07T03:24:08;7.57;;;5.93;;
37449;SDS011;23309;52.582;13.406;2022-12-07T03:26:39;6.57;;;5.00;;
37449;SDS011;23309;52.582;13.406;2022-12-07T03:29:10;9.97;;;5.43;;
37449;SDS011;23309;52.582;13.406;2022-12-07T03:31:46;9.27;;;6.40;;
37449;SDS011;23309;52.582;13.406;2022-12-07T03:34:21;9.90;;;6.23;;
37449;SDS011;23309;52.582;13.406;2022-12-07T03:36:55;7.30;;;6.33;;
37449;SDS011;23309;52.582;13.406;2022-12-07T03:39:29;8.33;;;6.40;;
37449;SDS011;23309;52.582;13.406;2022-12-07T03:42:02;9.73;;;7.40;;
37449;SDS011;23309;52.582;13.406;2022-12-07T03:44:31;9.50;;;7.23;;
37449;SDS011;23309;52.582;13.406;2022-12-07T03:47:03;9.77;;;7.70;;
37449;SDS011;23309;52.582;13.406;2022-12-07T03:49:37;12.23;;;7.27;;
37449;SDS011;23309;52.582;13.406;2022-12-07T03:52:11;11.40;;;8.10;;
37449;SDS011;23309;52.582;13.406;2022-12-07T03:54:46;11.80;;;8.33;;
37449;SDS011;23309;52.582;13.406;2022-12-07T03:57:17;10.73;;;7.80;;
37449;SDS011;23309;52.582;13.406;2022-12-07T03:59:44;11.40;;;8.17;;
37449;SDS011;23309;52.582;13.406;2022-12-07T04:02:14;12.57;;;8.30;;
37449;SDS011;23309;52.582;13.406;2022-12-07T04:04:41;10.03;;;7.63;;
37449;SDS011;23309;52.582;13.406;2022-12-07T04:07:08;12.00;;;8.17;;
37449;SDS011;23309;52.582;13.406;2022-12-07T04:09:34;12.50;;;8.53;;
37449;SDS011;23309;52.582;13.406;2022-12-07T04:12:00;12.73;;;8.13;;
37449;SDS011;23309;52.582;13.406;2022-12-07T04:14:26;10.90;;;8.03;;
37449;SDS011;23309;52.582;13.406;2022-12-07T04:16:53;11.23;;;8.77;;
37449;SDS011;23309;52.582;13.406;2022-12-07T04:19:24;11.80;;;8.63;;
37449;SDS011;23309;52.582;13.406;2022-12-07T04:21:52;12.50;;;7.87;;
37449;SDS011;23309;52.582;13.406;2022-12-07T04:24:19;10.97;;;8.37;;
37449;SDS011;23309;52.582;13.406;2022-12-07T04:26:46;12.67;;;8.87;;
37449;SDS011;23309;52.582;13.406;2022-12-07T04:29:13;11.73;;;9.13;;
37449;SDS011;23309;52.582;13.406;2022-12-07T04:31:40;11.30;;;8.57;;
37449;SDS011;23309;52.582;13.406;2022-12-07T04:34:06;12.47;;;9.10;;
37449;SDS011;23309;52.582;13.406;2022-12-07T04:36:35;11.03;;;8.30;;
37449;SDS011;23309;52.582;13.406;2022-12-07T04:39:02;12.03;;;9.10;;
37449;SDS011;23309;52.582;13.406;2022-12-07T04:41:29;12.73;;;9.70;;
37449;SDS011;23309;52.582;13.406;2022-12-07T04:43:56;13.70;;;9.23;;
37449;SDS011;23309;52.582;13.406;2022-12-07T04:46:25;13.00;;;9.60;;
37449;SDS011;23309;52.582;13.406;2022-12-07T04:48:52;11.70;;;9.10;;
37449;SDS011;23309;52.582;13.406;2022-12-07T04:51:20;16.10;;;10.00;;
37449;SDS011;23309;52.582;13.406;2022-12-07T04:53:51;14.83;;;9.73;;
37449;SDS011;23309;52.582;13.406;2022-12-07T04:56:18;12.97;;;9.73;;
37449;SDS011;23309;52.582;13.406;2022-12-07T04:58:45;12.30;;;9.67;;
37449;SDS011;23309;52.582;13.406;2022-12-07T05:01:13;13.03;;;9.60;;
37449;SDS011;23309;52.582;13.406;2022-12-07T05:03:41;14.80;;;10.63;;
37449;SDS011;23309;52.582;13.406;2022-12-07T05:06:07;14.77;;;10.67;;
37449;SDS011;23309;52.582;13.406;2022-12-07T05:08:35;15.47;;;10.93;;
37449;SDS011;23309;52.582;13.406;2022-12-07T05:11:05;16.73;;;11.13;;
37449;SDS011;23309;52.582;13.406;2022-12-07T05:13:31;17.53;;;11.40;;
37449;SDS011;23309;52.582;13.406;2022-12-07T05:15:58;15.60;;;11.50;;
37449;SDS011;23309;52.582;13.406;2022-12-07T05:18:24;13.93;;;10.57;;
37449;SDS011;23309;52.582;13.406;2022-12-07T05:20:51;16.60;;;11.27;;
37449;SDS011;23309;52.582;13.406;2022-12-07T05:23:17;16.60;;;11.13;;
37449;SDS011;23309;52.582;13.406;2022-12-07T05:25:44;17.40;;;12.80;;
37449;SDS011;23309;52.582;13.406;2022-12-07T05:28:14;16.33;;;12.17;;
37449;SDS011;23309;52.582;13.406;2022-12-07T05:30:40;17.00;;;12.23;;
37449;SDS011;23309;52.582;13.406;2022-12-07T05:33:06;15.93;;;11.90;;
37449;SDS011;23309;52.582;13.406;2022-12-07T05:35:32;20.23;;;12.40;;
37449;SDS011;23309;52.582;13.406;2022-12-07T05:37:58;16.73;;;12.10;;
37449;SDS011;23309;52.582;13.406;2022-12-07T05:40:24;15.90;;;11.83;;
37449;SDS011;23309;52.582;13.406;2022-12-07T05:42:50;19.40;;;11.93;;
37449;SDS011;23309;52.582;13.406;2022-12-07T05:45:19;19.30;;;12.43;;
37449;SDS011;23309;52.582;13.406;2022-12-07T05:47:45;15.60;;;11.97;;
37449;SDS011;23309;52.582;13.406;2022-12-07T05:50:11;20.90;;;11.67;;
37449;SDS011;23309;52.582;13.406;2022-12-07T05:52:37;18.60;;;12.87;;
37449;SDS011;23309;52.582;13.406;2022-12-07T05:55:04;18.97;;;13.10;;
37449;SDS011;23309;52.582;13.406;2022-12-07T05:57:32;17.17;;;12.50;;
37449;SDS011;23309;52.582;13.406;2022-12-07T05:59:58;19.20;;;12.73;;
37449;SDS011;23309;52.582;13.406;2022-12-07T06:02:27;16.60;;;12.87;;
37449;SDS011;23309;52.582;13.406;2022-12-07T06:04:53;17.73;;;12.80;;
37449;SDS011;23309;52.582;13.406;2022-12-07T06:07:20;17.10;;;12.47;;
37449;SDS011;23309;52.582;13.406;2022-12-07T06:09:46;20.50;;;12.90;;
37449;SDS011;23309;52.582;13.406;2022-12-07T06:12:12;18.00;;;11.97;;
37449;SDS011;23309;52.582;13.406;2022-12-07T06:14:42;21.47;;;12.00;;
37449;SDS011;23309;52.582;13.406;2022-12-07T06:17:09;18.67;;;11.77;;
37449;SDS011;23309;52.582;13.406;2022-12-07T06:19:38;16.90;;;11.83;;
37449;SDS011;23309;52.582;13.406;2022-12-07T06:22:05;17.67;;;11.70;;
37449;SDS011;23309;52.582;13.406;2022-12-07T06:24:32;17.50;;;11.13;;
37449;SDS011;23309;52.582;13.406;2022-12-07T06:26:58;16.50;;;11.17;;
37449;SDS011;23309;52.582;13.406;2022-12-07T06:29:25;17.03;;;10.97;;
37449;SDS011;23309;52.582;13.406;2022-12-07T06:31:51;16.23;;;12.17;;
37449;SDS011;23309;52.582;13.406;2022-12-07T06:34:18;18.57;;;11.77;;
37449;SDS011;23309;52.582;13.406;2022-12-07T06:36:48;17.47;;;11.20;;
37449;SDS011;23309;52.582;13.406;2022-12-07T06:39:15;21.00;;;11.37;;
37449;SDS011;23309;52.582;13.406;2022-12-07T06:41:42;17.43;;;11.30;;
37449;SDS011;23309;52.582;13.406;2022-12-07T06:44:08;20.00;;;11.70;;
37449;SDS011;23309;52.582;13.406;2022-12-07T06:46:34;15.77;;;11.10;;
37449;SDS011;23309;52.582;13.406;2022-12-07T06:49:01;20.60;;;11.93;;
37449;SDS011;23309;52.582;13.406;2022-12-07T06:51:27;17.20;;;11.10;;
37449;SDS011;23309;52.582;13.406;2022-12-07T06:53:56;16.00;;;11.43;;
37449;SDS011;23309;52.582;13.406;2022-12-07T06:56:22;15.63;;;10.43;;
37449;SDS011;23309;52.582;13.406;2022-12-07T06:58:48;15.77;;;11.17;;
37449;SDS011;23309;52.582;13.406;2022-12-07T07:01:16;15.97;;;11.53;;
37449;SDS011;23309;52.582;13.406;2022-12-07T07:03:43;16.90;;;11.23;;
37449;SDS011;23309;52.582;13.406;2022-12-07T07:06:10;15.70;;;10.70;;
37449;SDS011;23309;52.582;13.406;2022-12-07T07:08:37;16.57;;;11.40;;
37449;SDS011;23309;52.582;13.406;2022-12-07T07:11:07;17.80;;;12.00;;
37449;SDS011;23309;52.582;13.406;2022-12-07T07:13:34;19.50;;;11.57;;
37449;SDS011;23309;52.582;13.406;2022-12-07T07:16:01;15.37;;;11.13;;
37449;SDS011;23309;52.582;13.406;2022-12-07T07:18:27;15.73;;;10.60;;
37449;SDS011;23309;52.582;13.406;2022-12-07T07:20:54;16.70;;;11.90;;
37449;SDS011;23309;52.582;13.406;2022-12-07T07:23:21;15.97;;;11.23;;
37449;SDS011;23309;52.582;13.406;2022-12-07T07:25:47;16.10;;;10.20;;
37449;SDS011;23309;52.582;13.406;2022-12-07T07:28:16;14.47;;;10.73;;
37449;SDS011;23309;52.582;13.406;2022-12-07T07:30:43;14.97;;;10.90;;
37449;SDS011;23309;52.582;13.406;2022-12-07T07:33:09;16.43;;;11.77;;
37449;SDS011;23309;52.582;13.406;2022-12-07T07:35:35;17.30;;;10.80;;
37449;SDS011;23309;52.582;13.406;2022-12-07T07:38:02;13.00;;;10.10;;
37449;SDS011;23309;52.582;13.406;2022-12-07T07:40:29;12.40;;;9.27;;
37449;SDS011;23309;52.582;13.406;2022-12-07T07:42:55;14.13;;;8.70;;
37449;SDS011;23309;52.582;13.406;2022-12-07T07:45:26;16.37;;;10.37;;
37449;SDS011;23309;52.582;13.406;2022-12-07T07:47:52;17.53;;;9.73;;
37449;SDS011;23309;52.582;13.406;2022-12-07T07:50:19;12.10;;;9.00;;
37449;SDS011;23309;52.582;13.406;2022-12-07T07:52:45;12.43;;;9.10;;
37449;SDS011;23309;52.582;13.406;2022-12-07T07:55:12;12.53;;;8.70;;
37449;SDS011;23309;52.582;13.406;2022-12-07T07:57:38;11.80;;;8.60;;
37449;SDS011;23309;52.582;13.406;2022-12-07T08:00:06;13.73;;;8.50;;
37449;SDS011;23309;52.582;13.406;2022-12-07T08:02:38;11.63;;;7.60;;
37449;SDS011;23309;52.582;13.406;2022-12-07T08:05:05;11.87;;;7.57;;
37449;SDS011;23309;52.582;13.406;2022-12-07T08:07:32;10.33;;;6.97;;
37449;SDS011;23309;52.582;13.406;2022-12-07T08:09:58;8.07;;;5.77;;
37449;SDS011;23309;52.582;13.406;2022-12-07T08:12:25;9.70;;;6.20;;
37449;SDS011;23309;52.582;13.406;2022-12-07T08:14:51;7.60;;;6.00;;
37449;SDS011;23309;52.582;13.406;2022-12-07T08:17:17;7.80;;;5.13;;
37449;SDS011;23309;52.582;13.406;2022-12-07T08:19:46;7.47;;;5.10;;
37449;SDS011;23309;52.582;13.406;2022-12-07T08:22:12;9.10;;;5.03;;
37449;SDS011;23309;52.582;13.406;2022-12-07T08:24:38;6.97;;;5.57;;
37449;SDS011;23309;52.582;13.406;2022-12-07T08:27:04;5.87;;;4.20;;
37449;SDS011;23309;52.582;13.406;2022-12-07T08:29:30;6.57;;;4.90;;
37449;SDS011;23309;52.582;13.406;2022-12-07T08:31:57;5.70;;;4.27;;
37449;SDS011;23309;52.582;13.406;2022-12-07T08:34:23;11.47;;;4.43;;
37449;SDS011;23309;52.582;13.406;2022-12-07T08:36:52;4.77;;;3.73;;
37449;SDS011;23309;52.582;13.406;2022-12-07T08:39:18;5.10;;;3.80;;
37449;SDS011;23309;52.582;13.406;2022-12-07T08:41:45;6.37;;;3.37;;
37449;SDS011;23309;52.582;13.406;2022-12-07T08:44:11;3.90;;;3.30;;
37449;SDS011;23309;52.582;13.406;2022-12-07T08:46:38;3.10;;;2.70;;
37449;SDS011;23309;52.582;13.406;2022-12-07T08:49:10;3.10;;;2.73;;
37449;SDS011;23309;52.582;13.406;2022-12-07T08:51:41;3.70;;;2.80;;
37449;SDS011;23309;52.582;13.406;2022-12-07T08:54:10;5.53;;;3.30;;
37449;SDS011;23309;52.582;13.406;2022-12-07T08:56:40;3.70;;;2.90;;
37449;SDS011;23309;52.582;13.406;2022-12-07T08:59:07;5.60;;;3.10;;
37449;SDS011;23309;52.582;13.406;2022-12-07T09:01:33;3.80;;;2.83;;
37449;SDS011;23309;52.582;13.406;2022-12-07T09:03:59;2.77;;;2.57;;
37449;SDS011;23309;52.582;13.406;2022-12-07T09:06:25;4.37;;;2.77;;
37449;SDS011;23309;52.582;13.406;2022-12-07T09:08:53;2.87;;;2.40;;
37449;SDS011;23309;52.582;13.406;2022-12-07T09:11:26;2.80;;;2.60;;
37449;SDS011;23309;52.582;13.406;2022-12-07T09:13:52;3.57;;;2.53;;
37449;SDS011;23309;52.582;13.406;2022-12-07T09:16:18;2.57;;;2.37;;
37449;SDS011;23309;52.582;13.406;2022-12-07T09:18:44;2.23;;;2.00;;
37449;SDS011;23309;52.582;13.406;2022-12-07T09:21:11;2.70;;;1.90;;
37449;SDS011;23309;52.582;13.406;2022-12-07T09:23:37;2.07;;;1.63;;
37449;SDS011;23309;52.582;13.406;2022-12-07T09:26:03;3.50;;;1.70;;
37449;SDS011;23309;52.582;13.406;2022-12-07T09:28:33;2.53;;;1.50;;
37449;SDS011;23309;52.582;13.406;2022-12-07T09:30:59;1.50;;;1.40;;
37449;SDS011;23309;52.582;13.406;2022-12-07T09:33:25;3.00;;;1.50;;
37449;SDS011;23309;52.582;13.406;2022-12-07T09:35:51;2.57;;;1.30;;
37449;SDS011;23309;52.582;13.406;2022-12-07T09:38:18;2.83;;;2.00;;
37449;SDS011;23309;52.582;13.406;2022-12-07T09:40:45;1.70;;;1.60;;
37449;SDS011;23309;52.582;13.406;2022-12-07T09:43:12;1.90;;;1.80;;
37449;SDS011;23309;52.582;13.406;2022-12-07T09:45:43;2.83;;;1.60;;
37449;SDS011;23309;52.582;13.406;2022-12-07T09:48:14;2.00;;;1.90;;
37449;SDS011;23309;52.582;13.406;2022-12-07T09:50:44;1.80;;;1.70;;
37449;SDS011;23309;52.582;13.406;2022-12-07T09:53:14;1.80;;;1.70;;
37449;SDS011;23309;52.582;13.406;2022-12-07T09:55:46;1.70;;;1.60;;
37449;SDS011;23309;52.582;13.406;2022-12-07T09:58:12;2.03;;;1.80;;
37449;SDS011;23309;52.582;13.406;2022-12-07T10:00:47;1.70;;;1.60;;
37449;SDS011;23309;52.582;13.406;2022-12-07T10:03:13;1.57;;;1.47;;
37449;SDS011;23309;52.582;13.406;2022-12-07T10:05:40;1.57;;;1.47;;
37449;SDS011;23309;52.582;13.406;2022-12-07T10:08:11;2.37;;;1.80;;
37449;SDS011;23309;52.582;13.406;2022-12-07T10:10:38;1.90;;;1.77;;
37449;SDS011;23309;52.582;13.406;2022-12-07T10:13:05;2.03;;;1.83;;
37449;SDS011;23309;52.582;13.406;2022-12-07T10:15:40;2.03;;;1.50;;
37449;SDS011;23309;52.582;13.406;2022-12-07T10:18:19;2.60;;;1.63;;
37449;SDS011;23309;52.582;13.406;2022-12-07T10:20:59;2.10;;;1.60;;
37449;SDS011;23309;52.582;13.406;2022-12-07T10:23:35;1.40;;;1.30;;
37449;SDS011;23309;52.582;13.406;2022-12-07T10:26:19;1.30;;;1.20;;
37449;SDS011;23309;52.582;13.406;2022-12-07T10:28:58;1.80;;;1.60;;
37449;SDS011;23309;52.582;13.406;2022-12-07T10:31:29;2.90;;;1.27;;
37449;SDS011;23309;52.582;13.406;2022-12-07T10:33:56;1.50;;;1.40;;
37449;SDS011;23309;52.582;13.406;2022-12-07T10:36:24;1.40;;;1.30;;
37449;SDS011;23309;52.582;13.406;2022-12-07T10:38:53;2.60;;;1.80;;
37449;SDS011;23309;52.582;13.406;2022-12-07T10:41:27;1.70;;;1.60;;
37449;SDS011;23309;52.582;13.406;2022-12-07T10:43:54;1.80;;;1.40;;
37449;SDS011;23309;52.582;13.406;2022-12-07T10:46:26;1.60;;;1.50;;
37449;SDS011;23309;52.582;13.406;2022-12-07T10:49:52;1.40;;;1.30;;
37449;SDS011;23309;52.582;13.406;2022-12-07T10:52:50;2.10;;;1.70;;
37449;SDS011;23309;52.582;13.406;2022-12-07T10:55:33;4.10;;;1.50;;
37449;SDS011;23309;52.582;13.406;2022-12-07T10:58:28;2.87;;;1.97;;
37449;SDS011;23309;52.582;13.406;2022-12-07T11:01:12;1.60;;;1.50;;
37449;SDS011;23309;52.582;13.406;2022-12-07T11:03:59;2.70;;;1.77;;
37449;SDS011;23309;52.582;13.406;2022-12-07T11:06:44;4.87;;;1.90;;
37449;SDS011;23309;52.582;13.406;2022-12-07T11:09:26;2.83;;;2.13;;
37449;SDS011;23309;52.582;13.406;2022-12-07T11:12:20;1.83;;;1.73;;
37449;SDS011;23309;52.582;13.406;2022-12-07T11:15:01;2.70;;;1.70;;
37449;SDS011;23309;52.582;13.406;2022-12-07T11:17:42;7.23;;;1.90;;
37449;SDS011;23309;52.582;13.406;2022-12-07T11:20:21;2.63;;;2.20;;
37449;SDS011;23309;52.582;13.406;2022-12-07T11:23:02;3.53;;;2.00;;
37449;SDS011;23309;52.582;13.406;2022-12-07T11:25:38;2.60;;;1.60;;
37449;SDS011;23309;52.582;13.406;2022-12-07T11:28:18;2.67;;;1.90;;
37449;SDS011;23309;52.582;13.406;2022-12-07T11:31:03;1.70;;;1.60;;
37449;SDS011;23309;52.582;13.406;2022-12-07T11:33:40;4.67;;;1.83;;
37449;SDS011;23309;52.582;13.406;2022-12-07T11:36:17;3.60;;;1.80;;
37449;SDS011;23309;52.582;13.406;2022-12-07T11:39:02;2.07;;;1.80;;
37449;SDS011;23309;52.582;13.406;2022-12-07T11:41:36;2.07;;;1.90;;
37449;SDS011;23309;52.582;13.406;2022-12-07T11:44:07;4.00;;;2.13;;
37449;SDS011;23309;52.582;13.406;2022-12-07T11:46:45;2.43;;;2.17;;
37449;SDS011;23309;52.582;13.406;2022-12-07T11:49:19;2.13;;;1.93;;
37449;SDS011;23309;52.582;13.406;2022-12-07T11:51:57;3.33;;;2.33;;
37449;SDS011;23309;52.582;13.406;2022-12-07T11:54:28;4.43;;;2.07;;
37449;SDS011;23309;52.582;13.406;2022-12-07T11:57:02;2.03;;;1.93;;
37449;SDS011;23309;52.582;13.406;2022-12-07T11:59:36;2.10;;;1.90;;
37449;SDS011;23309;52.582;13.406;2022-12-07T12:02:11;2.30;;;2.10;;
37449;SDS011;23309;52.582;13.406;2022-12-07T12:04:44;5.30;;;1.90;;
37449;SDS011;23309;52.582;13.406;2022-12-07T12:07:23;2.40;;;2.10;;
37449;SDS011;23309;52.582;13.406;2022-12-07T12:09:53;14.30;;;2.30;;
37449;SDS011;23309;52.582;13.406;2022-12-07T12:12:27;2.37;;;2.17;;
37449;SDS011;23309;52.582;13.406;2022-12-07T12:15:17;3.70;;;2.30;;
37449;SDS011;23309;52.582;13.406;2022-12-07T12:18:05;6.93;;;2.97;;
37449;SDS011;23309;52.582;13.406;2022-12-07T12:20:51;6.40;;;2.10;;
37449;SDS011;23309;52.582;13.406;2022-12-07T12:23:26;4.17;;;2.30;;
37449;SDS011;23309;52.582;13.406;2022-12-07T12:26:03;6.37;;;2.57;;
37449;SDS011;23309;52.582;13.406;2022-12-07T12:28:33;5.10;;;2.67;;
37449;SDS011;23309;52.582;13.406;2022-12-07T12:31:06;3.83;;;2.20;;
37449;SDS011;23309;52.582;13.406;2022-12-07T12:33:38;9.63;;;3.10;;
37449;SDS011;23309;52.582;13.406;2022-12-07T12:36:20;4.43;;;2.50;;
37449;SDS011;23309;52.582;13.406;2022-12-07T12:47:51;3.57;;;2.33;;
37449;SDS011;23309;52.582;13.406;2022-12-07T12:50:24;4.63;;;2.40;;
37449;SDS011;23309;52.582;13.406;2022-12-07T12:53:01;5.10;;;2.17;;
37449;SDS011;23309;52.582;13.406;2022-12-07T13:01:48;4.20;;;2.17;;
37449;SDS011;23309;52.582;13.406;2022-12-07T13:04:27;5.07;;;2.47;;
37449;SDS011;23309;52.582;13.406;2022-12-07T13:07:02;7.93;;;2.50;;
37449;SDS011;23309;52.582;13.406;2022-12-07T13:09:29;3.77;;;2.27;;
37449;SDS011;23309;52.582;13.406;2022-12-07T13:12:03;4.37;;;2.07;;
37449;SDS011;23309;52.582;13.406;2022-12-07T13:20:43;6.57;;;2.43;;
37449;SDS011;23309;52.582;13.406;2022-12-07T13:23:13;3.53;;;2.07;;
37449;SDS011;23309;52.582;13.406;2022-12-07T13:25:45;3.20;;;2.07;;
37449;SDS011;23309;52.582;13.406;2022-12-07T13:28:22;6.50;;;2.70;;
37449;SDS011;23309;52.582;13.406;2022-12-07T13:31:15;2.50;;;2.20;;
37449;SDS011;23309;52.582;13.406;2022-12-07T13:33:55;5.13;;;2.50;;
37449;SDS011;23309;52.582;13.406;2022-12-07T13:36:22;8.33;;;2.53;;
37449;SDS011;23309;52.582;13.406;2022-12-07T13:38:52;10.20;;;2.60;;
37449;SDS011;23309;52.582;13.406;2022-12-07T13:41:23;5.23;;;2.10;;
37449;SDS011;23309;52.582;13.406;2022-12-07T13:43:59;6.07;;;2.63;;
37449;SDS011;23309;52.582;13.406;2022-12-07T13:46:31;6.10;;;2.40;;
37449;SDS011;23309;52.582;13.406;2022-12-07T13:49:15;3.00;;;1.97;;
37449;SDS011;23309;52.582;13.406;2022-12-07T13:51:47;5.57;;;2.00;;
37449;SDS011;23309;52.582;13.406;2022-12-07T13:54:15;5.97;;;1.67;;
37449;SDS011;23309;52.582;13.406;2022-12-07T13:56:46;4.80;;;1.70;;
37449;SDS011;23309;52.582;13.406;2022-12-07T13:59:19;5.33;;;1.80;;
37449;SDS011;23309;52.582;13.406;2022-12-07T14:01:48;4.00;;;1.70;;
37449;SDS011;23309;52.582;13.406;2022-12-07T14:04:17;4.80;;;2.10;;
37449;SDS011;23309;52.582;13.406;2022-12-07T14:06:54;3.93;;;1.60;;
37449;SDS011;23309;52.582;13.406;2022-12-07T14:09:21;2.30;;;1.30;;
37449;SDS011;23309;52.582;13.406;2022-12-07T14:11:50;3.60;;;1.77;;
37449;SDS011;23309;52.582;13.406;2022-12-07T14:14:21;12.27;;;1.87;;
37449;SDS011;23309;52.582;13.406;2022-12-07T14:16:58;3.40;;;1.50;;
37449;SDS011;23309;52.582;13.406;2022-12-07T14:19:41;4.97;;;2.23;;
37449;SDS011;23309;52.582;13.406;2022-12-07T14:22:24;3.60;;;1.97;;
37449;SDS011;23309;52.582;13.406;2022-12-07T14:24:58;4.20;;;1.53;;
37449;SDS011;23309;52.582;13.406;2022-12-07T14:27:30;5.40;;;1.70;;
37449;SDS011;23309;52.582;13.406;2022-12-07T14:30:01;2.53;;;1.60;;
37449;SDS011;23309;52.582;13.406;2022-12-07T14:32:29;4.47;;;1.87;;
37449;SDS011;23309;52.582;13.406;2022-12-07T14:34:58;12.80;;;2.17;;
37449;SDS011;23309;52.582;13.406;2022-12-07T14:37:28;3.07;;;1.93;;
37449;SDS011;23309;52.582;13.406;2022-12-07T14:39:55;8.97;;;1.90;;
37449;SDS011;23309;52.582;13.406;2022-12-07T14:42:23;11.60;;;2.10;;
37449;SDS011;23309;52.582;13.406;2022-12-07T14:44:53;2.40;;;1.47;;
37449;SDS011;23309;52.582;13.406;2022-12-07T14:47:22;4.47;;;2.00;;
37449;SDS011;23309;52.582;13.406;2022-12-07T14:49:48;4.20;;;1.90;;
37449;SDS011;23309;52.582;13.406;2022-12-07T14:52:15;5.43;;;2.43;;
37449;SDS011;23309;52.582;13.406;2022-12-07T14:54:44;5.27;;;2.10;;
37449;SDS011;23309;52.582;13.406;2022-12-07T14:57:10;4.37;;;2.50;;
37449;SDS011;23309;52.582;13.406;2022-12-07T14:59:37;3.90;;;1.90;;
37449;SDS011;23309;52.582;13.406;2022-12-07T15:02:03;6.40;;;2.40;;
37449;SDS011;23309;52.582;13.406;2022-12-07T15:04:33;6.63;;;2.27;;
37449;SDS011;23309;52.582;13.406;2022-12-07T15:07:03;4.57;;;2.30;;
37449;SDS011;23309;52.582;13.406;2022-12-07T15:09:31;9.77;;;2.67;;
37449;SDS011;23309;52.582;13.406;2022-12-07T15:11:57;6.57;;;2.40;;
37449;SDS011;23309;52.582;13.406;2022-12-07T15:14:23;6.00;;;2.53;;